createdAt,value
2019-03-28T04:03:11.828Z,97.30
2019-03-28T04:05:41.505Z,97.40
2019-03-28T04:08:10.643Z,97.50
2019-03-28T04:10:39.774Z,97.50
2019-03-28T04:13:08.890Z,97.70
2019-03-28T04:15:38.283Z,97.60
2019-03-28T04:18:07.617Z,97.60
2019-03-28T04:20:36.706Z,97.50
2019-03-28T04:23:05.802Z,97.60
2019-03-28T04:25:34.927Z,97.50
2019-03-28T04:28:04.030Z,97.40
2019-03-28T04:30:33.210Z,97.50
2019-03-28T04:33:02.303Z,97.50
2019-03-28T04:35:31.391Z,97.60
2019-03-28T04:38:00.982Z,97.60
2019-03-28T04:40:30.074Z,97.60
2019-03-28T04:43:02.278Z,97.60
2019-03-28T04:45:31.393Z,97.70
2019-03-28T04:48:00.948Z,97.60
2019-03-28T04:50:30.674Z,97.60
2019-03-28T04:52:59.765Z,97.60
2019-03-28T04:55:28.891Z,97.60
2019-03-28T04:57:58.438Z,97.60
2019-03-28T05:00:27.533Z,97.50
2019-03-28T05:02:57.562Z,97.50
2019-03-28T05:05:27.566Z,97.80
2019-03-28T05:07:56.682Z,97.60
2019-03-28T05:10:25.791Z,97.60
2019-03-28T05:12:54.890Z,97.50
2019-03-28T05:15:24.012Z,97.40
2019-03-28T05:17:53.107Z,97.40
2019-03-28T05:20:23.534Z,97.30
2019-03-28T05:22:52.654Z,97.20
2019-03-28T05:25:21.784Z,97.10
2019-03-28T05:27:50.882Z,97.10
2019-03-28T05:30:20.273Z,97.10
2019-03-28T05:32:49.747Z,96.80
2019-03-28T05:35:18.846Z,96.90
2019-03-28T05:37:47.967Z,96.70
2019-03-28T05:40:17.078Z,96.70
2019-03-28T05:42:46.481Z,96.80
2019-03-28T05:45:15.952Z,96.60
2019-03-28T05:47:45.077Z,96.40
2019-03-28T05:50:14.186Z,96.50
2019-03-28T05:52:43.322Z,96.40
2019-03-28T05:55:13.361Z,96.40
2019-03-28T05:57:42.763Z,96.60
2019-03-28T06:00:11.902Z,96.70
2019-03-28T06:02:41.633Z,96.70
2019-03-28T06:05:10.759Z,96.90
2019-03-28T06:07:39.858Z,96.90
2019-03-28T06:10:09.129Z,97.10
2019-03-28T06:12:38.318Z,97.00
2019-03-28T06:15:07.423Z,97.00
2019-03-28T06:17:36.521Z,96.90
2019-03-28T06:20:06.178Z,96.70
2019-03-28T06:22:35.302Z,96.70
2019-03-28T06:25:05.869Z,96.60
2019-03-28T06:27:35.278Z,96.30
2019-03-28T06:30:04.970Z,96.20
2019-03-28T06:32:42.697Z,96.30
2019-03-28T06:35:05.771Z,95.90
2019-03-28T06:37:34.872Z,95.60
2019-03-28T06:40:04.195Z,95.60
2019-03-28T06:42:33.314Z,95.40
2019-03-28T06:45:03.973Z,95.10
2019-03-28T06:47:33.310Z,94.50
2019-03-28T06:50:02.422Z,93.50
2019-03-28T06:52:31.534Z,93.40
2019-03-28T06:55:00.663Z,92.70
2019-03-28T06:57:29.803Z,92.20
2019-03-28T06:59:59.223Z,92.30
2019-03-28T07:02:28.370Z,91.80
2019-03-28T07:04:57.761Z,91.80
2019-03-28T07:07:26.851Z,91.90
2019-03-28T07:09:55.967Z,91.10
2019-03-28T07:12:25.383Z,90.30
2019-03-28T07:14:54.515Z,90.00
2019-03-28T07:17:23.613Z,87.50
2019-03-28T07:19:52.722Z,86.90
2019-03-28T07:22:23.014Z,86.90
2019-03-28T07:24:52.475Z,82.20
2019-03-28T07:27:21.575Z,80.00
2019-03-28T07:29:51.497Z,76.80
2019-03-28T07:32:20.815Z,77.20
2019-03-28T07:34:49.922Z,75.80
2019-03-28T07:37:19.332Z,75.30
2019-03-28T07:39:48.466Z,76.20
2019-03-28T07:42:17.861Z,74.20
2019-03-28T07:44:47.246Z,73.50
2019-03-28T07:47:16.702Z,71.10
2019-03-28T07:49:46.110Z,70.50
2019-03-28T07:52:15.215Z,70.60
2019-03-28T07:54:44.335Z,67.90
2019-03-28T07:57:13.434Z,65.10
2019-03-28T07:59:44.083Z,63.50
2019-03-28T08:02:13.379Z,62.70
2019-03-28T08:04:42.795Z,60.90
2019-03-28T08:07:11.894Z,58.60
2019-03-28T08:09:41.043Z,56.60
2019-03-28T08:12:21.722Z,52.40
2019-03-28T08:14:40.978Z,49.30
2019-03-28T08:17:10.105Z,44.30
2019-03-28T08:19:41.544Z,41.70
2019-03-28T08:22:10.338Z,40.00
2019-03-28T08:24:39.483Z,41.70
2019-03-28T08:27:08.574Z,44.70
2019-03-28T08:29:37.951Z,44.00
2019-03-28T08:32:13.469Z,46.90
2019-03-28T08:34:41.577Z,49.60
2019-03-28T08:37:10.678Z,48.60
2019-03-28T08:39:39.854Z,48.80
2019-03-28T08:42:09.078Z,49.80
2019-03-28T08:44:38.679Z,50.00
2019-03-28T08:47:08.003Z,47.60
2019-03-28T08:49:37.106Z,46.60
2019-03-28T08:52:06.291Z,45.80
2019-03-28T08:54:36.052Z,45.80
2019-03-28T08:57:05.274Z,43.70
2019-03-28T08:59:34.374Z,43.60
2019-03-28T09:02:05.057Z,41.80
2019-03-28T09:04:34.386Z,39.90
2019-03-28T09:07:03.489Z,39.00
2019-03-28T09:09:32.898Z,39.80
2019-03-28T09:12:02.033Z,41.10
2019-03-28T09:14:32.099Z,39.60
2019-03-28T09:17:01.547Z,39.30
2019-03-28T09:19:31.015Z,40.20
2019-03-28T09:22:00.179Z,39.80
2019-03-28T09:24:29.342Z,40.00
2019-03-28T09:26:58.438Z,38.70
2019-03-28T09:29:27.555Z,38.10
2019-03-28T09:31:56.670Z,38.30
2019-03-28T09:34:25.762Z,38.80
2019-03-28T09:36:54.910Z,39.50
2019-03-28T09:39:25.051Z,40.40
2019-03-28T09:41:54.308Z,38.40
2019-03-28T09:44:23.694Z,38.60
2019-03-28T09:46:52.815Z,37.50
2019-03-28T09:49:21.910Z,36.10
2019-03-28T09:51:51.035Z,36.10
2019-03-28T09:54:20.181Z,36.20
2019-03-28T09:56:49.274Z,37.00
2019-03-28T09:59:18.402Z,37.50
2019-03-28T10:01:47.938Z,38.50
2019-03-28T10:04:17.034Z,37.90
2019-03-28T10:06:46.135Z,39.10
2019-03-28T10:09:15.595Z,38.00
2019-03-28T10:11:45.041Z,38.70
2019-03-28T10:14:33.198Z,39.80
2019-03-28T10:17:02.292Z,38.10
2019-03-28T10:19:31.394Z,38.10
2019-03-28T10:22:00.522Z,38.20
2019-03-28T10:24:29.918Z,39.30
2019-03-28T10:26:59.052Z,38.70
2019-03-28T10:29:28.179Z,38.30
2019-03-28T10:31:57.270Z,37.40
2019-03-28T10:34:26.369Z,37.00
2019-03-28T10:36:55.495Z,38.00
2019-03-28T10:39:24.612Z,34.90
2019-03-28T10:41:54.736Z,32.90
2019-03-28T10:44:24.490Z,32.00
2019-03-28T10:46:53.603Z,32.00
2019-03-28T10:49:22.703Z,30.40
2019-03-28T10:51:51.826Z,30.80
2019-03-28T10:54:21.090Z,31.80
2019-03-28T10:56:52.480Z,32.40
2019-03-28T10:59:25.335Z,35.40
2019-03-28T11:01:51.933Z,35.20
2019-03-28T11:04:21.109Z,34.50
2019-03-28T11:06:50.294Z,34.80
2019-03-28T11:09:19.409Z,35.00
2019-03-28T11:11:48.486Z,35.70
2019-03-28T11:14:17.618Z,36.50
2019-03-28T11:16:48.373Z,37.30
2019-03-28T11:19:17.847Z,37.90
2019-03-28T11:21:47.280Z,41.30
2019-03-28T11:24:16.382Z,41.10
2019-03-28T11:26:45.855Z,41.60
2019-03-28T11:29:14.975Z,40.30
2019-03-28T11:31:47.777Z,40.20
2019-03-28T11:34:14.944Z,40.50
2019-03-28T11:36:44.087Z,41.20
2019-03-28T11:39:13.174Z,40.00
2019-03-28T11:41:42.271Z,43.50
2019-03-28T11:44:11.622Z,42.90
2019-03-28T11:46:40.967Z,42.60
2019-03-28T11:49:10.089Z,43.20
2019-03-28T11:51:39.212Z,41.50
2019-03-28T11:54:08.305Z,42.60
2019-03-28T11:56:37.398Z,42.20
2019-03-28T11:59:06.605Z,42.20
2019-03-28T12:01:35.695Z,43.10
2019-03-28T12:04:04.800Z,44.20
2019-03-28T12:06:33.959Z,45.20
2019-03-28T12:09:04.539Z,46.50
2019-03-28T12:11:33.638Z,47.30
2019-03-28T12:14:02.770Z,47.10
2019-03-28T12:16:31.965Z,48.60
2019-03-28T12:19:01.370Z,49.60
2019-03-28T12:21:30.474Z,50.40
2019-03-28T12:23:59.934Z,50.30
2019-03-28T12:26:29.026Z,51.20
2019-03-28T12:28:58.158Z,51.30
2019-03-28T12:31:27.319Z,51.40
2019-03-28T12:33:56.458Z,50.80
2019-03-28T12:36:25.598Z,51.00
2019-03-28T12:38:54.865Z,52.00
2019-03-28T12:41:24.084Z,52.20
2019-03-28T12:43:53.279Z,51.70
2019-03-28T12:46:25.494Z,51.30
2019-03-28T12:48:53.259Z,51.50
2019-03-28T12:51:22.435Z,52.90
2019-03-28T12:53:51.530Z,52.40
2019-03-28T12:56:20.622Z,52.90
2019-03-28T12:58:49.734Z,52.60
2019-03-28T13:01:18.837Z,53.30
2019-03-28T13:03:47.928Z,54.80
2019-03-28T13:06:17.055Z,53.60
2019-03-28T13:08:46.355Z,53.50
2019-03-28T13:11:15.472Z,54.50
2019-03-28T13:13:44.649Z,52.00
2019-03-28T13:16:13.804Z,52.50
2019-03-28T13:18:43.436Z,52.70
2019-03-28T13:21:14.209Z,52.70
2019-03-28T13:23:43.547Z,52.70
2019-03-28T13:26:12.635Z,52.50
2019-03-28T13:28:41.915Z,52.40
2019-03-28T13:31:11.011Z,51.60
2019-03-28T13:33:40.106Z,51.80
2019-03-28T13:36:09.555Z,50.60
2019-03-28T13:38:38.931Z,50.80
2019-03-28T13:41:08.050Z,51.70
2019-03-28T13:43:39.906Z,51.70
2019-03-28T13:46:09.006Z,51.70
2019-03-28T13:48:38.107Z,53.00
2019-03-28T13:51:07.223Z,51.80
2019-03-28T13:53:39.812Z,52.90
2019-03-28T13:56:07.153Z,52.40
2019-03-28T13:58:36.742Z,52.40
2019-03-28T14:01:05.879Z,52.10
2019-03-28T14:03:35.006Z,53.20
2019-03-28T14:06:04.285Z,51.90
2019-03-28T14:08:33.416Z,52.60
2019-03-28T14:11:02.771Z,53.20
2019-03-28T14:13:32.233Z,54.00
2019-03-28T14:16:01.624Z,54.90
2019-03-28T14:18:31.006Z,54.30
2019-03-28T14:21:00.287Z,53.50
2019-03-28T14:23:29.447Z,53.70
2019-03-28T14:25:58.862Z,53.60
2019-03-28T14:28:28.327Z,54.60
2019-03-28T14:31:00.687Z,53.50
2019-03-28T14:33:29.374Z,54.30
2019-03-28T14:35:58.522Z,55.40
2019-03-28T14:38:27.713Z,55.20
2019-03-28T14:40:58.377Z,55.50
2019-03-28T14:43:27.582Z,55.80
2019-03-28T14:45:56.778Z,56.90
2019-03-28T14:48:25.923Z,56.70
2019-03-28T14:50:55.117Z,56.80
2019-03-28T14:53:24.202Z,57.30
2019-03-28T14:55:53.310Z,57.70
2019-03-28T14:58:22.419Z,59.50
2019-03-28T15:00:52.405Z,59.10
2019-03-28T15:03:26.748Z,58.90
2019-03-28T15:05:52.642Z,59.10
2019-03-28T15:08:21.736Z,58.80
2019-03-28T15:10:50.825Z,59.70
2019-03-28T15:13:19.947Z,59.80
2019-03-28T15:15:49.042Z,60.00
2019-03-28T15:18:18.308Z,61.00
2019-03-28T15:20:47.490Z,60.80
2019-03-28T15:23:16.605Z,61.00
2019-03-28T15:25:45.751Z,61.30
2019-03-28T15:28:14.838Z,61.80
2019-03-28T15:30:44.094Z,62.40
2019-03-28T15:33:13.316Z,62.30
2019-03-28T15:35:42.578Z,63.60
2019-03-28T15:38:11.702Z,64.00
2019-03-28T15:40:40.857Z,64.00
2019-03-28T15:43:10.001Z,64.60
2019-03-28T15:45:39.105Z,64.10
2019-03-28T15:48:08.201Z,65.00
2019-03-28T15:50:37.331Z,65.20
2019-03-28T15:53:06.495Z,65.80
2019-03-28T15:55:35.694Z,66.90
2019-03-28T15:58:04.806Z,67.40
2019-03-28T16:00:33.904Z,67.50
2019-03-28T16:03:03.425Z,67.90
2019-03-28T16:05:32.523Z,68.30
2019-03-28T16:08:01.926Z,68.60
2019-03-28T16:10:31.046Z,69.00
2019-03-28T16:13:00.234Z,69.20
2019-03-28T16:15:29.416Z,70.20
2019-03-28T16:17:58.512Z,71.10
2019-03-28T16:20:27.679Z,71.20
2019-03-28T16:22:56.770Z,71.30
2019-03-28T16:25:25.859Z,71.40
2019-03-28T16:27:54.975Z,71.00
2019-03-28T16:30:43.187Z,70.80
2019-03-28T16:33:12.331Z,70.60
2019-03-28T16:35:44.442Z,71.10
2019-03-28T16:38:14.072Z,72.00
2019-03-28T16:40:43.178Z,71.90
2019-03-28T16:43:12.275Z,72.90
2019-03-28T16:45:41.426Z,72.90
2019-03-28T16:48:10.819Z,73.90
2019-03-28T16:50:40.214Z,74.50
2019-03-28T16:53:09.912Z,75.00
2019-03-28T16:55:39.567Z,75.30
2019-03-28T16:58:08.678Z,75.40
2019-03-28T17:00:38.890Z,75.90
2019-03-28T17:03:07.991Z,76.60
2019-03-28T17:05:37.107Z,77.50
2019-03-28T17:08:06.214Z,78.00
2019-03-28T17:10:52.281Z,77.80
2019-03-28T17:13:21.427Z,78.70
2019-03-28T17:15:51.173Z,78.40
2019-03-28T17:18:20.558Z,78.70
2019-03-28T17:20:49.720Z,78.80
2019-03-28T17:23:19.114Z,79.30
2019-03-28T17:25:48.235Z,79.60
2019-03-28T17:28:17.401Z,80.20
2019-03-28T17:30:46.534Z,80.00
2019-03-28T17:33:17.767Z,80.30
2019-03-28T17:35:46.590Z,80.10
2019-03-28T17:38:15.690Z,81.00
2019-03-28T17:40:44.784Z,80.50
2019-03-28T17:43:13.890Z,81.40
2019-03-28T17:45:43.154Z,81.70
2019-03-28T17:48:12.277Z,82.20
2019-03-28T17:50:41.401Z,82.80
2019-03-28T17:53:10.533Z,83.10
2019-03-28T17:55:39.648Z,83.20
2019-03-28T17:58:08.751Z,83.30
2019-03-28T18:00:37.940Z,84.40
2019-03-28T18:03:09.499Z,84.40
2019-03-28T18:05:40.470Z,84.60
2019-03-28T18:08:09.337Z,84.30
2019-03-28T18:10:38.568Z,84.30
2019-03-28T18:13:07.743Z,84.70
2019-03-28T18:15:36.985Z,84.90
2019-03-28T18:18:06.292Z,85.00
2019-03-28T18:20:35.542Z,85.30
2019-03-28T18:23:05.113Z,85.70
2019-03-28T18:25:34.356Z,85.40
2019-03-28T18:28:03.598Z,85.80
2019-03-28T18:30:32.846Z,85.50
2019-03-28T18:33:03.926Z,85.70
2019-03-28T18:35:33.385Z,85.70
2019-03-28T18:38:03.336Z,85.80
2019-03-28T18:40:32.754Z,86.20
2019-03-28T18:43:03.937Z,86.60
2019-03-28T18:45:33.900Z,86.60
2019-03-28T18:48:03.142Z,86.90
2019-03-28T18:50:32.385Z,87.10
2019-03-28T18:53:01.589Z,87.10
2019-03-28T18:55:30.739Z,87.10
2019-03-28T18:58:00.050Z,87.10
2019-03-28T19:00:29.158Z,87.20
2019-03-28T19:02:58.373Z,87.20
2019-03-28T19:05:27.466Z,87.20
2019-03-28T19:07:57.062Z,87.10
2019-03-28T19:10:26.327Z,87.50
2019-03-28T19:12:55.521Z,87.80
2019-03-28T19:15:24.669Z,88.20
2019-03-28T19:17:53.825Z,88.30
2019-03-28T19:20:23.190Z,88.70
2019-03-28T19:22:52.650Z,88.70
2019-03-28T19:25:22.088Z,88.90
2019-03-28T19:27:51.206Z,88.90
2019-03-28T19:30:29.731Z,89.00
2019-03-28T19:32:58.928Z,90.00
2019-03-28T19:35:33.243Z,89.50
2019-03-28T19:37:59.179Z,89.70
2019-03-28T19:40:28.528Z,89.50
2019-03-28T19:42:57.630Z,89.80
2019-03-28T19:45:35.838Z,89.90
2019-03-28T19:48:06.141Z,90.10
2019-03-28T19:50:35.268Z,90.00
2019-03-28T19:53:05.139Z,90.20
2019-03-28T19:55:34.656Z,90.10
2019-03-28T19:58:04.865Z,90.30
2019-03-28T20:00:34.669Z,90.20
2019-03-28T20:03:03.778Z,90.30
2019-03-28T20:05:46.365Z,90.30
2019-03-28T20:08:14.949Z,90.40
2019-03-28T20:10:34.978Z,90.60
2019-03-28T20:13:05.452Z,90.60
2019-03-28T20:15:34.966Z,90.60
2019-03-28T20:18:04.188Z,90.60
2019-03-28T20:20:33.282Z,90.80
2019-03-28T20:23:02.405Z,91.00
2019-03-28T20:25:32.651Z,90.90
2019-03-28T20:28:02.238Z,91.00
2019-03-28T20:30:31.461Z,91.10
2019-03-28T20:33:00.662Z,91.30
2019-03-28T20:35:29.762Z,91.20
2019-03-28T20:37:58.930Z,91.20
2019-03-28T20:40:28.048Z,91.50
2019-03-28T20:42:57.274Z,91.70
2019-03-28T20:45:26.398Z,91.70
2019-03-28T20:47:55.585Z,91.80
2019-03-28T20:50:28.044Z,91.70
2019-03-28T20:52:57.642Z,91.70
2019-03-28T20:55:26.840Z,91.80
2019-03-28T20:57:55.947Z,91.80
2019-03-28T21:00:40.064Z,92.00
2019-03-28T21:03:09.367Z,91.90
2019-03-28T21:05:38.510Z,92.10
2019-03-28T21:08:07.676Z,92.00
2019-03-28T21:10:36.772Z,92.10
2019-03-28T21:13:05.866Z,92.00
2019-03-28T21:15:35.022Z,92.00
2019-03-28T21:18:04.155Z,92.20
2019-03-28T21:20:33.333Z,92.30
2019-03-28T21:23:05.123Z,92.30
2019-03-28T21:25:33.266Z,92.40
2019-03-28T21:28:02.358Z,92.60
2019-03-28T21:30:31.594Z,92.50
2019-03-28T21:33:00.685Z,92.50
2019-03-28T21:35:29.842Z,92.40
2019-03-28T21:37:59.006Z,92.60
2019-03-28T21:40:28.163Z,92.60
2019-03-28T21:42:57.349Z,92.60
2019-03-28T21:45:26.466Z,92.70
2019-03-28T21:47:55.558Z,92.70
2019-03-28T21:50:24.943Z,92.80
2019-03-28T21:52:54.430Z,92.90
2019-03-28T21:55:23.535Z,92.90
2019-03-28T21:57:52.634Z,93.00
2019-03-28T22:00:21.761Z,93.00
2019-03-28T22:02:51.119Z,93.00
2019-03-28T22:05:20.435Z,93.10
2019-03-28T22:07:49.833Z,93.20
2019-03-28T22:10:19.009Z,93.20
2019-03-28T22:12:48.099Z,93.30
2019-03-28T22:15:17.250Z,93.40
2019-03-28T22:17:46.337Z,93.40
2019-03-28T22:20:15.439Z,93.70
2019-03-28T22:22:44.686Z,93.40
2019-03-28T22:25:13.786Z,93.40
2019-03-28T22:27:42.893Z,93.50
2019-03-28T22:30:13.008Z,93.50
2019-03-28T22:32:42.297Z,93.70
2019-03-28T22:35:11.403Z,93.70
2019-03-28T22:37:40.506Z,93.80
2019-03-28T22:40:11.900Z,93.80
2019-03-28T22:42:40.953Z,93.70
2019-03-28T22:45:10.835Z,93.90
2019-03-28T22:47:39.911Z,94.10
2019-03-28T22:50:09.039Z,94.20
2019-03-28T22:52:38.150Z,94.10
2019-03-28T22:55:07.703Z,94.00
2019-03-28T22:57:36.789Z,94.30
2019-03-28T23:00:08.378Z,94.30
